createdAt,value
2022-09-30T00:01:29.318Z,10.00
2022-09-30T00:03:57.658Z,9.90
2022-09-30T00:06:26.713Z,9.90
2022-09-30T00:08:54.006Z,9.80
2022-09-30T00:11:28.698Z,9.80
2022-09-30T00:13:56.196Z,9.80
2022-09-30T00:16:25.898Z,9.70
2022-09-30T00:18:55.784Z,9.70
2022-09-30T00:21:24.853Z,9.70
2022-09-30T00:23:52.131Z,9.60
2022-09-30T00:26:22.732Z,9.40
2022-09-30T00:28:57.090Z,9.30
2022-09-30T00:31:27.548Z,9.30
2022-09-30T00:34:07.165Z,9.20
2022-09-30T00:36:52.457Z,9.30
2022-09-30T00:39:25.022Z,9.30
2022-09-30T00:41:56.432Z,9.30
2022-09-30T00:45:10.600Z,9.40
2022-09-30T00:48:01.608Z,9.30
2022-09-30T00:50:38.511Z,9.20
2022-09-30T00:53:20.941Z,9.20
2022-09-30T00:55:56.036Z,9.10
2022-09-30T00:59:01.827Z,9.10
2022-09-30T01:01:28.599Z,9.10
2022-09-30T01:03:59.753Z,9.10
2022-09-30T01:06:26.554Z,9.00
2022-09-30T01:08:53.809Z,9.00
2022-09-30T01:11:21.012Z,9.00
2022-09-30T01:13:50.880Z,9.00
2022-09-30T01:16:42.656Z,8.90
2022-09-30T01:19:12.339Z,8.90
2022-09-30T01:22:10.016Z,8.90
2022-09-30T01:24:42.050Z,8.90
2022-09-30T01:27:15.486Z,8.80
2022-09-30T01:30:11.231Z,8.80
2022-09-30T01:33:05.798Z,8.70
2022-09-30T01:35:42.180Z,8.60
2022-09-30T01:38:30.048Z,8.60
2022-09-30T01:41:02.800Z,8.60
2022-09-30T01:43:36.236Z,8.60
2022-09-30T01:46:12.138Z,8.60
2022-09-30T01:48:44.342Z,8.60
2022-09-30T01:51:19.733Z,8.60
2022-09-30T01:53:51.227Z,8.50
2022-09-30T01:56:22.856Z,8.50
2022-09-30T01:59:17.335Z,8.50
2022-09-30T02:01:49.895Z,8.50
2022-09-30T02:04:23.946Z,8.40
2022-09-30T02:06:53.565Z,8.40
2022-09-30T02:09:33.732Z,8.40
2022-09-30T02:12:03.573Z,8.30
2022-09-30T02:14:43.918Z,8.30
2022-09-30T02:17:17.581Z,8.30
2022-09-30T02:19:46.841Z,8.30
2022-09-30T02:22:18.117Z,8.20
2022-09-30T02:24:47.649Z,8.20
2022-09-30T02:27:19.836Z,8.20
2022-09-30T02:29:50.759Z,8.20
2022-09-30T02:32:24.205Z,8.10
2022-09-30T02:34:54.965Z,8.10
2022-09-30T02:37:28.786Z,8.00
2022-09-30T02:40:23.351Z,7.90
2022-09-30T02:42:50.194Z,7.80
2022-09-30T02:45:20.865Z,7.70
2022-09-30T02:47:51.170Z,7.70
2022-09-30T02:50:28.043Z,7.70
2022-09-30T02:53:14.477Z,7.60
2022-09-30T02:55:56.069Z,7.60
2022-09-30T02:58:26.261Z,7.70
2022-09-30T03:00:54.690Z,7.70
2022-09-30T03:03:28.399Z,7.60
2022-09-30T03:05:55.332Z,7.70
2022-09-30T03:08:22.094Z,7.70
2022-09-30T03:10:50.982Z,7.60
2022-09-30T03:13:53.425Z,7.60
2022-09-30T03:16:47.619Z,7.60
2022-09-30T03:19:33.274Z,7.60
2022-09-30T03:22:25.171Z,7.50
2022-09-30T03:25:13.999Z,7.50
2022-09-30T03:27:55.908Z,7.50
2022-09-30T03:30:27.105Z,7.50
2022-09-30T03:33:09.097Z,7.40
2022-09-30T03:36:17.449Z,7.40
2022-09-30T03:38:50.825Z,7.40
2022-09-30T03:41:52.568Z,7.40
2022-09-30T03:44:22.360Z,7.30
2022-09-30T03:46:56.478Z,7.30
2022-09-30T03:49:47.207Z,7.30
2022-09-30T03:52:15.159Z,7.20
2022-09-30T03:54:51.077Z,7.10
2022-09-30T03:57:17.944Z,7.10
2022-09-30T03:59:44.775Z,7.10
2022-09-30T04:02:13.312Z,7.10
2022-09-30T04:04:41.871Z,7.10
2022-09-30T04:07:10.239Z,7.10
2022-09-30T04:09:38.054Z,7.10
2022-09-30T04:12:05.180Z,7.10
2022-09-30T04:14:32.069Z,7.10
2022-09-30T04:16:58.832Z,7.10
2022-09-30T04:19:25.632Z,7.10
2022-09-30T04:21:53.242Z,7.00
2022-09-30T04:24:23.918Z,7.00
2022-09-30T04:26:51.383Z,7.00
2022-09-30T04:29:18.182Z,7.00
2022-09-30T04:31:44.960Z,6.90
2022-09-30T04:34:11.951Z,6.90
2022-09-30T04:36:38.797Z,6.90
2022-09-30T04:39:05.569Z,6.90
2022-09-30T04:41:34.121Z,6.90
2022-09-30T04:44:06.198Z,6.80
2022-09-30T04:46:36.877Z,6.80
2022-09-30T04:49:08.833Z,6.80
2022-09-30T04:51:36.487Z,6.80
2022-09-30T04:54:03.498Z,6.80
2022-09-30T04:56:30.283Z,6.80
2022-09-30T04:58:57.421Z,6.80
2022-09-30T05:01:24.342Z,6.80
2022-09-30T05:03:51.232Z,6.80
2022-09-30T05:06:18.172Z,6.80
2022-09-30T05:08:46.437Z,6.70
2022-09-30T05:11:21.134Z,6.80
2022-09-30T05:13:48.449Z,6.80
2022-09-30T05:16:15.944Z,6.80
2022-09-30T05:18:45.888Z,6.70
2022-09-30T05:21:15.182Z,6.70
2022-09-30T05:23:42.027Z,6.70
2022-09-30T05:26:12.317Z,6.70
2022-09-30T05:28:41.130Z,6.70
2022-09-30T05:31:08.184Z,6.70
2022-09-30T05:33:35.910Z,6.70
2022-09-30T05:36:06.215Z,6.70
2022-09-30T05:38:33.552Z,6.70
2022-09-30T05:41:07.669Z,6.70
2022-09-30T05:43:35.227Z,6.70
2022-09-30T05:46:01.961Z,6.70
2022-09-30T05:48:28.760Z,6.70
2022-09-30T05:50:57.631Z,6.70
2022-09-30T05:53:24.801Z,6.70
2022-09-30T05:55:52.152Z,6.80
2022-09-30T05:58:19.516Z,6.70
2022-09-30T06:00:47.429Z,6.70
2022-09-30T06:03:14.965Z,6.80
2022-09-30T06:05:41.805Z,6.80
2022-09-30T06:08:11.105Z,6.80
2022-09-30T06:10:43.804Z,6.80
2022-09-30T06:13:11.201Z,6.80
2022-09-30T06:15:41.425Z,6.80
2022-09-30T06:18:08.871Z,6.90
2022-09-30T06:20:36.768Z,6.90
2022-09-30T06:23:04.075Z,6.90
2022-09-30T06:25:31.258Z,6.90
2022-09-30T06:27:58.192Z,6.90
2022-09-30T06:30:25.112Z,6.90
2022-09-30T06:32:54.067Z,6.90
2022-09-30T06:35:24.005Z,6.90
2022-09-30T06:37:51.813Z,7.00
2022-09-30T06:40:19.905Z,6.90
2022-09-30T06:42:48.126Z,6.90
2022-09-30T06:45:26.714Z,7.00
2022-09-30T06:48:00.644Z,7.00
2022-09-30T06:50:28.622Z,7.00
2022-09-30T06:52:59.727Z,7.00
2022-09-30T06:55:27.655Z,7.00
2022-09-30T06:57:56.070Z,7.10
2022-09-30T07:00:24.292Z,7.10
2022-09-30T07:02:51.097Z,7.10
2022-09-30T07:05:17.879Z,7.20
2022-09-30T07:07:44.628Z,7.20
2022-09-30T07:10:11.767Z,7.30
2022-09-30T07:12:38.533Z,7.30
2022-09-30T07:15:08.204Z,7.30
2022-09-30T07:17:36.990Z,7.50
2022-09-30T07:20:03.887Z,7.50
2022-09-30T07:22:32.068Z,7.50
2022-09-30T07:25:00.663Z,7.50
2022-09-30T07:27:28.212Z,7.60
2022-09-30T07:30:08.939Z,7.60
2022-09-30T07:32:38.707Z,7.70
2022-09-30T07:35:06.307Z,7.90
2022-09-30T07:37:35.964Z,7.90
2022-09-30T07:40:08.091Z,8.00
2022-09-30T07:42:37.859Z,8.10
2022-09-30T07:45:05.133Z,8.10
2022-09-30T07:47:31.891Z,8.20
2022-09-30T07:49:58.791Z,8.30
2022-09-30T07:52:25.503Z,8.30
2022-09-30T07:54:52.750Z,8.40
2022-09-30T07:57:19.587Z,8.40
2022-09-30T07:59:46.364Z,8.30
2022-09-30T08:02:17.987Z,8.50
2022-09-30T08:04:45.167Z,8.50
2022-09-30T08:07:13.474Z,8.50
2022-09-30T08:09:40.371Z,8.50
2022-09-30T08:12:07.225Z,8.60
2022-09-30T08:14:34.022Z,8.60
2022-09-30T08:17:01.113Z,8.60
2022-09-30T08:19:29.947Z,8.70
2022-09-30T08:21:57.389Z,8.70
2022-09-30T08:24:25.521Z,8.90
2022-09-30T08:26:52.878Z,8.90
2022-09-30T08:29:35.664Z,9.00
2022-09-30T08:32:06.909Z,8.90
2022-09-30T08:34:35.690Z,9.00
2022-09-30T08:37:07.895Z,9.00
2022-09-30T08:39:36.597Z,9.10
2022-09-30T08:45:30.763Z,9.40
2022-09-30T08:48:21.883Z,9.40
2022-09-30T08:50:57.869Z,9.60
2022-09-30T08:53:34.856Z,9.70
2022-09-30T08:56:02.900Z,9.60
2022-09-30T08:58:33.167Z,9.90
2022-09-30T09:01:22.950Z,10.10
2022-09-30T09:03:49.903Z,10.20
2022-09-30T09:06:34.656Z,10.30
2022-09-30T09:09:10.363Z,10.40
2022-09-30T09:11:43.488Z,10.50
2022-09-30T09:14:25.814Z,10.50
2022-09-30T09:17:21.987Z,10.40
2022-09-30T09:20:01.224Z,10.60
2022-09-30T09:22:28.637Z,10.80
2022-09-30T09:24:56.085Z,10.90
2022-09-30T09:27:34.751Z,10.80
2022-09-30T09:30:08.862Z,10.90
2022-09-30T09:32:36.287Z,10.90
2022-09-30T09:35:18.058Z,11.10
2022-09-30T09:38:15.139Z,11.20
2022-09-30T09:41:07.547Z,11.20
2022-09-30T09:44:02.533Z,11.30
2022-09-30T09:46:32.254Z,11.30
2022-09-30T09:49:25.011Z,11.60
2022-09-30T09:52:23.938Z,11.80
2022-09-30T09:54:52.889Z,12.00
2022-09-30T09:57:27.712Z,12.00
2022-09-30T09:59:58.448Z,12.20
2022-09-30T10:02:29.039Z,12.30
2022-09-30T10:05:03.597Z,12.30
2022-09-30T10:07:33.047Z,12.40
2022-09-30T10:10:23.022Z,12.40
2022-09-30T10:12:50.500Z,12.40
2022-09-30T10:15:26.977Z,12.60
2022-09-30T10:17:58.424Z,12.70
2022-09-30T10:20:30.340Z,13.00
2022-09-30T10:23:16.314Z,13.00
2022-09-30T10:25:59.153Z,13.10
2022-09-30T10:28:30.119Z,13.10
2022-09-30T10:31:15.502Z,13.20
2022-09-30T10:33:45.154Z,13.10
2022-09-30T10:36:15.886Z,13.20
2022-09-30T10:38:58.945Z,13.40
2022-09-30T10:41:30.468Z,13.60
2022-09-30T10:44:00.219Z,13.50
2022-09-30T10:46:31.393Z,13.40
2022-09-30T10:48:59.153Z,13.50
2022-09-30T10:51:33.749Z,13.60
2022-09-30T10:54:01.441Z,13.80
2022-09-30T10:56:35.507Z,13.90
2022-09-30T10:59:04.208Z,14.00
2022-09-30T11:01:35.725Z,13.90
2022-09-30T11:04:22.969Z,14.00
2022-09-30T11:06:54.546Z,14.20
2022-09-30T11:09:35.878Z,14.10
2022-09-30T11:12:14.758Z,14.10
2022-09-30T11:14:48.566Z,14.20
2022-09-30T11:17:18.048Z,14.20
2022-09-30T11:19:53.467Z,14.40
2022-09-30T11:22:37.758Z,14.30
2022-09-30T11:25:10.214Z,14.40
2022-09-30T11:27:56.109Z,14.60
2022-09-30T11:30:44.535Z,14.60
2022-09-30T11:33:20.514Z,14.60
2022-09-30T11:36:05.837Z,14.50
2022-09-30T11:39:00.035Z,14.50
2022-09-30T11:41:33.697Z,14.60
2022-09-30T11:44:12.490Z,14.60
2022-09-30T11:47:00.948Z,14.80
2022-09-30T11:49:42.342Z,15.10
2022-09-30T11:52:21.403Z,15.20
2022-09-30T11:54:57.965Z,15.10
2022-09-30T11:57:40.825Z,15.00
2022-09-30T12:00:14.732Z,14.90
2022-09-30T12:02:46.691Z,15.20
2022-09-30T12:05:24.927Z,15.40
2022-09-30T12:07:55.401Z,15.50
2022-09-30T12:10:39.030Z,15.70
2022-09-30T12:13:18.169Z,15.70
2022-09-30T12:15:45.523Z,16.00
2022-09-30T12:18:22.872Z,16.10
2022-09-30T12:21:02.184Z,16.10
2022-09-30T12:23:35.829Z,16.20
2022-09-30T12:26:04.322Z,16.20
2022-09-30T12:28:58.932Z,16.30
2022-09-30T12:32:09.244Z,16.40
2022-09-30T12:35:01.446Z,16.40
2022-09-30T12:37:42.230Z,16.50
2022-09-30T12:40:22.565Z,16.70
2022-09-30T12:43:17.563Z,16.70
2022-09-30T12:46:02.451Z,16.70
2022-09-30T12:48:37.382Z,16.80
2022-09-30T12:51:04.639Z,16.90
2022-09-30T12:53:33.714Z,16.90
2022-09-30T12:56:06.055Z,16.80
2022-09-30T12:58:37.146Z,16.80
2022-09-30T13:01:30.618Z,16.80
2022-09-30T13:03:57.433Z,16.80
2022-09-30T13:06:25.659Z,17.10
2022-09-30T13:09:16.830Z,17.20
2022-09-30T13:11:44.686Z,17.20
2022-09-30T13:14:18.772Z,17.30
2022-09-30T13:17:01.481Z,17.40
2022-09-30T13:19:36.317Z,17.40
2022-09-30T13:22:22.657Z,17.50
2022-09-30T13:25:03.190Z,17.50
2022-09-30T13:27:51.596Z,17.60
2022-09-30T13:30:18.524Z,17.80
2022-09-30T13:33:27.045Z,17.80
2022-09-30T13:35:58.249Z,18.00
2022-09-30T13:38:39.999Z,18.30
2022-09-30T13:41:24.327Z,18.40
2022-09-30T13:44:02.526Z,18.50
2022-09-30T13:46:36.755Z,18.60
2022-09-30T13:49:18.531Z,18.70
2022-09-30T13:51:46.132Z,18.70
2022-09-30T13:54:34.071Z,18.70
2022-09-30T13:57:02.729Z,18.70
2022-09-30T14:00:12.079Z,18.50
2022-09-30T14:02:48.212Z,18.50
2022-09-30T14:05:52.619Z,18.50
2022-09-30T14:08:31.904Z,18.50
2022-09-30T14:11:34.183Z,18.60
2022-09-30T14:14:26.139Z,18.90
2022-09-30T14:17:08.842Z,19.10
2022-09-30T14:19:44.791Z,18.90
2022-09-30T14:22:12.251Z,18.90
2022-09-30T14:24:40.294Z,18.80
2022-09-30T14:27:22.348Z,18.70
2022-09-30T14:30:01.338Z,18.60
2022-09-30T14:32:33.845Z,18.70
2022-09-30T14:35:05.663Z,18.80
2022-09-30T14:37:37.720Z,18.70
2022-09-30T14:40:14.074Z,19.10
2022-09-30T14:42:41.627Z,19.30
2022-09-30T14:45:09.496Z,19.60
2022-09-30T14:47:44.448Z,19.80
2022-09-30T14:50:16.305Z,19.80
2022-09-30T14:52:45.316Z,19.70
2022-09-30T14:55:34.272Z,19.60
2022-09-30T14:58:22.248Z,19.40
2022-09-30T15:00:58.109Z,19.50
2022-09-30T15:03:26.684Z,19.80
2022-09-30T15:05:53.561Z,19.90
2022-09-30T15:08:21.771Z,19.90
2022-09-30T15:10:50.305Z,20.10
2022-09-30T15:13:18.978Z,20.00
2022-09-30T15:15:46.037Z,19.90
2022-09-30T15:18:31.316Z,20.00
2022-09-30T15:21:09.041Z,20.20
2022-09-30T15:23:37.060Z,20.10
2022-09-30T15:26:04.047Z,20.00
2022-09-30T15:28:30.939Z,19.80
2022-09-30T15:30:58.476Z,19.90
2022-09-30T15:33:31.948Z,19.60
2022-09-30T15:36:05.712Z,19.60
2022-09-30T15:38:34.849Z,19.60
2022-09-30T15:41:05.474Z,19.70
2022-09-30T15:43:36.416Z,19.50
2022-09-30T15:46:16.819Z,19.50
2022-09-30T15:48:46.995Z,19.30
2022-09-30T15:51:39.116Z,19.20
2022-09-30T15:54:15.173Z,19.20
2022-09-30T15:56:43.203Z,19.20
2022-09-30T15:59:11.984Z,19.30
2022-09-30T16:01:45.697Z,19.20
2022-09-30T16:04:15.276Z,19.20
2022-09-30T16:06:48.873Z,19.00
2022-09-30T16:09:18.872Z,19.10
2022-09-30T16:11:50.113Z,19.00
2022-09-30T16:14:23.344Z,18.80
2022-09-30T16:16:53.822Z,18.90
2022-09-30T16:19:20.812Z,18.90
2022-09-30T16:21:52.097Z,18.90
2022-09-30T16:24:25.494Z,18.80
2022-09-30T16:26:53.341Z,18.90
2022-09-30T16:29:21.296Z,18.80
2022-09-30T16:31:50.359Z,18.70
2022-09-30T16:34:36.952Z,18.60
2022-09-30T16:37:10.963Z,18.60
2022-09-30T16:39:37.923Z,18.50
2022-09-30T16:42:05.033Z,18.50
2022-09-30T16:44:35.587Z,18.60
2022-09-30T16:47:02.774Z,18.60
2022-09-30T16:49:29.483Z,18.50
2022-09-30T16:51:56.326Z,18.40
2022-09-30T16:54:23.081Z,18.40
2022-09-30T16:56:49.861Z,18.30
2022-09-30T16:59:17.943Z,18.30
2022-09-30T17:01:44.858Z,18.20
2022-09-30T17:04:14.161Z,18.10
2022-09-30T17:06:43.950Z,18.10
2022-09-30T17:09:10.719Z,18.00
2022-09-30T17:11:38.261Z,17.90
2022-09-30T17:14:05.413Z,17.90
2022-09-30T17:16:33.158Z,17.80
2022-09-30T17:19:00.465Z,17.80
2022-09-30T17:21:27.415Z,17.70
2022-09-30T17:23:55.152Z,17.60
2022-09-30T17:26:22.254Z,17.60
2022-09-30T17:28:49.060Z,17.60
2022-09-30T17:31:15.970Z,17.50
2022-09-30T17:33:42.805Z,17.50
2022-09-30T17:36:11.845Z,17.50
2022-09-30T17:38:39.113Z,17.40
2022-09-30T17:41:25.216Z,17.40
2022-09-30T17:43:52.123Z,17.30
2022-09-30T17:46:23.310Z,17.30
2022-09-30T17:48:51.237Z,17.20
2022-09-30T17:51:18.154Z,17.10
2022-09-30T17:53:45.164Z,17.20
2022-09-30T17:56:19.703Z,17.00
2022-09-30T17:58:48.927Z,17.00
2022-09-30T18:01:17.642Z,17.00
2022-09-30T18:03:45.779Z,16.90
2022-09-30T18:06:14.694Z,16.80
2022-09-30T18:08:41.581Z,16.70
2022-09-30T18:11:08.470Z,16.60
2022-09-30T18:13:35.260Z,16.50
2022-09-30T18:16:06.266Z,16.60
2022-09-30T18:18:34.836Z,16.50
2022-09-30T18:21:01.548Z,16.40
2022-09-30T18:23:28.354Z,16.50
2022-09-30T18:25:56.113Z,16.40
2022-09-30T18:28:22.995Z,16.40
2022-09-30T18:30:49.865Z,16.40
2022-09-30T18:33:17.452Z,16.30
2022-09-30T18:35:44.596Z,16.30
2022-09-30T18:38:13.438Z,16.20
2022-09-30T18:40:43.460Z,16.20
2022-09-30T18:43:13.447Z,16.20
2022-09-30T18:45:40.672Z,16.20
2022-09-30T18:48:08.404Z,16.20
2022-09-30T18:50:35.599Z,16.10
2022-09-30T18:53:09.564Z,16.00
2022-09-30T18:55:38.307Z,15.80
2022-09-30T18:58:05.507Z,15.90
2022-09-30T19:00:32.672Z,15.80
2022-09-30T19:02:59.566Z,15.80
2022-09-30T19:05:26.491Z,15.70
2022-09-30T19:07:53.933Z,15.70
2022-09-30T19:10:20.857Z,15.70
2022-09-30T19:12:48.901Z,15.60
2022-09-30T19:15:18.328Z,15.60
2022-09-30T19:17:45.688Z,15.60
2022-09-30T19:20:15.206Z,15.50
2022-09-30T19:22:42.166Z,15.60
2022-09-30T19:25:14.059Z,15.50
2022-09-30T19:27:42.230Z,15.50
2022-09-30T19:30:11.533Z,15.50
2022-09-30T19:32:38.613Z,15.40
2022-09-30T19:35:10.239Z,15.40
2022-09-30T19:37:38.163Z,15.40
2022-09-30T19:40:19.134Z,15.40
2022-09-30T19:42:48.333Z,15.20
2022-09-30T19:45:16.714Z,15.10
2022-09-30T19:47:44.038Z,15.20
2022-09-30T19:50:10.804Z,15.20
2022-09-30T19:52:46.248Z,15.10
2022-09-30T19:55:20.486Z,15.10
2022-09-30T19:57:47.255Z,15.00
2022-09-30T20:00:14.088Z,15.00
2022-09-30T20:02:41.232Z,15.00
2022-09-30T20:05:09.797Z,15.00
2022-09-30T20:07:36.588Z,14.90
2022-09-30T20:10:03.856Z,14.90
2022-09-30T20:12:30.638Z,14.90
2022-09-30T20:15:15.967Z,14.90
2022-09-30T20:17:42.780Z,14.90
2022-09-30T20:20:27.846Z,14.90
2022-09-30T20:22:54.721Z,14.80
2022-09-30T20:25:21.672Z,14.90
2022-09-30T20:27:52.241Z,14.80
2022-09-30T20:30:20.355Z,14.80
2022-09-30T20:32:47.210Z,14.80
2022-09-30T20:35:14.103Z,14.70
2022-09-30T20:37:42.335Z,14.70
2022-09-30T20:40:09.866Z,14.60
2022-09-30T20:42:38.497Z,14.60
2022-09-30T20:45:10.449Z,14.60
2022-09-30T20:47:43.283Z,14.50
2022-09-30T20:50:10.541Z,14.50
2022-09-30T20:52:37.321Z,14.40
2022-09-30T20:55:05.979Z,14.30
2022-09-30T20:57:32.731Z,14.20
2022-09-30T21:00:00.074Z,14.20
2022-09-30T21:02:28.158Z,14.20
2022-09-30T21:04:57.504Z,14.10
2022-09-30T21:07:25.322Z,14.10
2022-09-30T21:09:52.563Z,14.00
2022-09-30T21:12:19.507Z,14.00
2022-09-30T21:14:46.336Z,14.00
2022-09-30T21:17:13.171Z,14.00
2022-09-30T21:19:40.107Z,13.90
2022-09-30T21:22:07.280Z,13.90
2022-09-30T21:24:34.061Z,13.80
2022-09-30T21:27:01.783Z,13.70
2022-09-30T21:29:30.726Z,13.70
2022-09-30T21:31:57.764Z,13.60
2022-09-30T21:34:24.767Z,13.50
2022-09-30T21:36:51.590Z,13.50
2022-09-30T21:39:18.339Z,13.50
2022-09-30T21:41:45.455Z,13.50
2022-09-30T21:44:13.993Z,13.50
2022-09-30T21:46:44.680Z,13.30
2022-09-30T21:49:19.546Z,13.40
2022-09-30T21:51:46.782Z,13.40
2022-09-30T21:54:14.115Z,13.40
2022-09-30T21:56:42.656Z,13.20
2022-09-30T21:59:10.008Z,13.30
2022-09-30T22:01:37.635Z,13.30
2022-09-30T22:04:05.246Z,13.20
2022-09-30T22:06:32.280Z,13.20
2022-09-30T22:09:01.401Z,13.10
2022-09-30T22:11:29.637Z,13.10
2022-09-30T22:13:58.267Z,13.10
2022-09-30T22:16:27.269Z,13.00
2022-09-30T22:19:00.810Z,13.00
2022-09-30T22:21:28.725Z,12.90
2022-09-30T22:23:55.550Z,12.90
2022-09-30T22:26:22.847Z,12.90
2022-09-30T22:28:55.739Z,12.80
2022-09-30T22:31:24.446Z,12.80
2022-09-30T22:34:12.143Z,12.70
2022-09-30T22:36:57.428Z,12.70
2022-09-30T22:39:24.912Z,12.70
2022-09-30T22:41:55.125Z,12.70
2022-09-30T22:44:24.765Z,12.70
2022-09-30T22:46:52.681Z,12.60
2022-09-30T22:49:19.717Z,12.60
2022-09-30T22:51:49.665Z,12.50
2022-09-30T22:54:17.002Z,12.50
2022-09-30T22:56:43.812Z,12.50
2022-09-30T22:59:10.793Z,12.40
2022-09-30T23:01:37.533Z,12.30
2022-09-30T23:04:05.326Z,12.30
2022-09-30T23:06:32.147Z,12.20
2022-09-30T23:08:58.894Z,12.20
2022-09-30T23:11:26.027Z,12.10
2022-09-30T23:13:58.226Z,12.10
2022-09-30T23:16:25.931Z,12.10
2022-09-30T23:18:52.973Z,12.20
2022-09-30T23:21:20.012Z,12.10
2022-09-30T23:23:48.423Z,12.10
2022-09-30T23:26:20.359Z,12.10
2022-09-30T23:28:47.295Z,12.10
2022-09-30T23:31:15.774Z,12.10
2022-09-30T23:33:47.683Z,12.10
2022-09-30T23:36:16.637Z,12.10
2022-09-30T23:38:43.693Z,12.00
2022-09-30T23:41:11.092Z,12.00
2022-09-30T23:43:37.992Z,11.90
2022-09-30T23:46:06.728Z,11.90
2022-09-30T23:48:34.392Z,11.90
2022-09-30T23:51:01.649Z,11.90
2022-09-30T23:53:28.410Z,11.90
2022-09-30T23:56:00.484Z,11.90
2022-09-30T23:58:27.702Z,11.90
